Weather at Scholes International At Galveston Airport

Public forecast

Using degrees Fahrenheit for public forecast. Weather courtesy of forecast.io.

Current aviation weather report (METAR) for Scholes International At Galveston Airport

Retrieved 2021/12/06 03:14 UTC (0 seconds ago):

KGLS 060314Z AUTO 16012KT 10SM FEW004 23/21 A2993 RMK AO2 T02280206

Aviation forecast (TAF) for Scholes International At Galveston Airport

Retrieved 2021-12-06 00:42 UTC (2 hours ago):

TAF KGLS 052339Z 0600/0624 16010KT P6SM FEW009 SCT035 FM060200 15009KT 6SM BR BKN015 FM060500 16011KT 5SM BR OVC006 FM061200 19011KT P6SM VCSH OVC012 FM061700 20011KT 6SM -SHRA BR VCTS BKN030CB FM062200 35013KT P6SM VCSH OVC015